Green River, WY

5:57 PM MDT on October 22, 2014 (GMT -0600)
Fairway Estates | Change Station
CLOSE
Current Station
Personal Weather Station
Location: Rock Springs, WY
Elevation: 6430 ft
Nearby Weather Stations

Elev 6430 ft 41.64 °N, 109.25 °W | Updated 8 seconds ago

Clear
Clear
52.3 °F
Feels Like 52.3 °F
N
3.0
Wind Variable Wind from WNW
Gusts 9.0 mph

Today
High -- | Low -- °F
--% Chance of Precip.
Yesterday
High -- | Low -- °F
Precip. -- in
7:37 AM 6:26 PM
Waning Crescent, 1% visible
Pressure 30.12 in
Visibility 10.0 miles
Clouds Clear
Dew Point 18 °F
Humidity 26%
Rainfall 0.00 in
Snow Depth Not available.
UV 1 out of 12
Pollen 1.70 out of 12
Air Quality Not available.
Flu Activity Sporadic
METAR KRKS 222254Z AUTO 26012KT 10SM CLR 11/M07 A3019 RMK AO2 SLP200 T01111067

More Conditions Fewer Conditions

Pressure 30.12 in
Visibility 10.0 miles
Clouds Clear
Dew Point 18 °F
Humidity 26%
Rainfall 0.00 in
Snow Depth Not available.
UV 1 out of 12
Pollen 1.70 out of 12
Air Quality Not available.
Flu Activity Sporadic
METAR KRKS 222254Z AUTO 26012KT 10SM CLR 11/M07 A3019 RMK AO2 SLP200 T01111067

More Conditions Fewer Conditions

10-Day Weather Forecast

Almanac

Astronomy

Oct. 22, 2014 Rise Set
Actual Time 7:37 AM MDT 6:26 PM MDT
Civil Twilight 7:09 AM MDT 6:54 PM MDT
Nautical Twilight 6:37 AM MDT 7:26 PM MDT
Astronomical Twilight 6:05 AM MDT 7:58 PM MDT
Moon 6:21 AM MDT 5:55 PM MDT
Length of Visible Light 11h 44m
Length of Day
10h 48m
Tomorrow will be 2m 35s shorter.
Waning Crescent, 1% of the Moon is Illuminated
Today
Waning Crescent
Oct 23
New
Oct 30
First Quarter
Nov 6
Full
Nov 14
Last Quarter

Today's Extremes

State Highs State Lows

Community

WunderPhotos

Upload Photos

1,764,080 photos uploaded!

WunderBlogs® & News

Nearby

Snow Depth

Station Depth Elevation
Big Sandy Opening 1 in 9080 ft
Kelley R.S. 0 in 8180 ft
Spring Creek Divide 1 in 9000 ft
Salt River Summit 0 in 7600 ft
Willow Creek 0 in 8450 ft

Earthquake Activity

City Distance Mag. Time & Date
No recent earthquake activity has been reported nearby.
Minimum magnitude displayed is 2.5.

Coastal Water Temperatures

Place Temperature
No Stations Reporting

Nearby Weather Stations